Time;durP1;ratioP1;P1;durP2;ratioP2;P2;SDS_P1;SDS_P2;PMS_P1;PMS_P2;Temp;Humidity;BMP_temperature;BMP_pressure;BME280_temperature;BME280_humidity;BME280_pressure;Samples;Min_cycle;Max_cycle;Signal;HPM_P1;HPM_P2
2023/05/23 00:02:16;;;;;;;16.20;11.85;;;18.10;86.90;;;;;;5064466;28;20033;-74
2023/05/23 00:04:43;;;;;;;16.88;12.32;;;18.00;87.00;;;;;;5057532;28;20056;-72
2023/05/23 00:07:10;;;;;;;16.27;12.35;;;18.00;86.90;;;;;;5062219;28;20543;-70
2023/05/23 00:09:37;;;;;;;15.52;12.57;;;18.10;86.90;;;;;;5060903;28;20924;-69
2023/05/23 00:12:05;;;;;;;15.07;12.25;;;18.10;86.90;;;;;;5052928;28;20037;-62
2023/05/23 00:14:34;;;;;;;13.77;11.82;;;18.10;86.90;;;;;;5057254;28;20511;-63
2023/05/23 00:17:02;;;;;;;16.48;12.07;;;18.00;86.90;;;;;;5059690;28;20044;-63
2023/05/23 00:19:29;;;;;;;15.90;12.13;;;18.00;86.90;;;;;;5061068;28;20112;-63
2023/05/23 00:21:58;;;;;;;14.13;10.88;;;17.90;87.00;;;;;;5067950;28;20044;-70
2023/05/23 00:24:26;;;;;;;14.15;11.85;;;18.00;86.90;;;;;;5064550;28;20053;-70
2023/05/23 00:26:52;;;;;;;15.38;11.65;;;17.90;86.90;;;;;;5055542;28;20106;-65
2023/05/23 00:29:19;;;;;;;14.57;10.93;;;17.90;86.90;;;;;;5050881;28;20048;-64
2023/05/23 00:31:46;;;;;;;13.80;10.50;;;17.90;87.00;;;;;;5061278;28;20051;-73
2023/05/23 00:34:17;;;;;;;16.42;11.82;;;17.90;86.80;;;;;;5060195;28;20080;-72
2023/05/23 00:36:46;;;;;;;13.40;10.80;;;18.00;86.70;;;;;;5042899;28;20045;-68
2023/05/23 00:39:18;;;;;;;14.07;11.82;;;18.00;86.80;;;;;;5038260;28;20044;-69
2023/05/23 00:41:45;;;;;;;16.70;11.45;;;18.00;86.80;;;;;;5037339;28;20091;-70
2023/05/23 00:44:12;;;;;;;14.45;11.38;;;17.90;86.80;;;;;;5061875;28;20036;-69
2023/05/23 00:46:40;;;;;;;14.85;11.25;;;17.90;86.90;;;;;;5044056;28;20056;-69
2023/05/23 00:49:07;;;;;;;13.98;11.55;;;17.80;87.00;;;;;;5062646;28;20040;-68
2023/05/23 00:51:36;;;;;;;13.23;10.45;;;17.80;87.10;;;;;;5045585;28;20048;-76
2023/05/23 00:54:05;;;;;;;12.68;10.07;;;17.80;87.00;;;;;;5051316;28;20122;-76
2023/05/23 00:56:32;;;;;;;11.38;9.93;;;17.70;86.90;;;;;;5036502;28;20507;-64
2023/05/23 00:59:00;;;;;;;12.80;10.15;;;17.70;86.90;;;;;;5064842;28;20052;-64
2023/05/23 01:01:27;;;;;;;12.88;9.88;;;17.70;86.80;;;;;;5042205;28;20047;-68
2023/05/23 01:03:55;;;;;;;12.23;10.00;;;17.80;86.80;;;;;;5069736;28;20047;-67
2023/05/23 01:06:22;;;;;;;12.75;10.55;;;17.80;86.60;;;;;;5065510;28;20454;-62
2023/05/23 01:08:51;;;;;;;12.68;10.32;;;17.80;86.60;;;;;;5067395;28;20103;-62
2023/05/23 01:11:38;;;;;;;13.48;11.00;;;17.80;86.70;;;;;;5039048;28;20041;-61
2023/05/23 01:14:10;;;;;;;15.45;11.20;;;17.70;86.80;;;;;;5069159;28;20051;-62
2023/05/23 01:16:47;;;;;;;14.95;11.93;;;17.70;87.00;;;;;;5068066;28;20507;-65
2023/05/23 01:19:48;;;;;;;14.38;11.93;;;17.70;87.00;;;;;;5060790;28;20048;-64
2023/05/23 01:22:22;;;;;;;13.98;12.13;;;17.70;87.20;;;;;;5068672;28;20067;-73
2023/05/23 01:24:57;;;;;;;15.95;11.30;;;17.70;87.10;;;;;;5060839;28;20062;-73
2023/05/23 01:27:39;;;;;;;13.52;11.23;;;17.70;87.30;;;;;;5060843;28;20049;-68
2023/05/23 01:30:09;;;;;;;14.30;11.73;;;17.70;87.20;;;;;;5065289;28;20052;-68
2023/05/23 01:32:38;;;;;;;15.65;11.77;;;17.70;87.20;;;;;;5066124;28;20049;-68
2023/05/23 01:35:06;;;;;;;15.13;12.05;;;17.60;87.20;;;;;;5063586;28;20056;-68
2023/05/23 01:37:33;;;;;;;13.77;11.45;;;17.60;87.10;;;;;;5068707;28;20048;-68
2023/05/23 01:40:00;;;;;;;15.77;12.10;;;17.60;87.10;;;;;;5061250;28;20037;-68
2023/05/23 01:42:27;;;;;;;16.00;11.63;;;17.60;87.10;;;;;;5058220;28;20507;-74
2023/05/23 01:44:58;;;;;;;14.15;11.95;;;17.60;86.90;;;;;;5060949;28;20045;-74
2023/05/23 01:47:25;;;;;;;15.10;11.60;;;17.60;87.00;;;;;;5053989;28;20044;-68
2023/05/23 01:49:52;;;;;;;15.82;11.63;;;17.60;86.90;;;;;;5056905;28;20049;-69
2023/05/23 01:52:21;;;;;;;15.25;11.35;;;17.60;87.00;;;;;;5059886;28;20045;-69
2023/05/23 01:54:48;;;;;;;14.20;11.23;;;17.60;87.00;;;;;;5054651;28;20053;-69
2023/05/23 01:57:16;;;;;;;16.38;11.93;;;17.60;86.90;;;;;;5038657;28;20060;-65
2023/05/23 01:59:43;;;;;;;15.18;11.98;;;17.60;86.80;;;;;;5049417;28;20055;-64
2023/05/23 02:02:12;;;;;;;14.27;11.60;;;17.60;86.90;;;;;;5040671;28;20052;-61
2023/05/23 02:04:38;;;;;;;15.57;12.00;;;17.60;86.90;;;;;;5061750;28;20052;-63
2023/05/23 02:07:06;;;;;;;15.25;12.05;;;17.60;86.90;;;;;;5054957;28;20048;-77
2023/05/23 02:09:32;;;;;;;13.35;10.82;;;17.60;87.10;;;;;;5035839;28;20036;-77
2023/05/23 02:12:00;;;;;;;15.40;11.63;;;17.50;87.30;;;;;;5062424;28;20056;-63
2023/05/23 02:14:27;;;;;;;11.90;10.00;;;17.40;87.30;;;;;;5039672;28;20094;-61
2023/05/23 02:16:54;;;;;;;12.70;11.02;;;17.40;87.50;;;;;;5043339;28;20055;-69
2023/05/23 02:19:22;;;;;;;13.35;11.23;;;17.30;87.50;;;;;;5051161;28;20044;-70
2023/05/23 02:21:52;;;;;;;13.45;11.13;;;17.30;87.60;;;;;;5047678;28;20052;-67
2023/05/23 02:24:18;;;;;;;12.25;10.20;;;17.20;87.70;;;;;;5034619;28;20041;-69
2023/05/23 02:26:45;;;;;;;12.40;10.63;;;17.20;87.70;;;;;;5056617;28;20070;-68
2023/05/23 02:29:12;;;;;;;12.93;10.20;;;17.20;87.70;;;;;;5049077;28;20102;-67
2023/05/23 02:31:39;;;;;;;12.98;10.48;;;17.20;87.60;;;;;;5056090;28;20033;-69
2023/05/23 02:34:06;;;;;;;14.70;10.27;;;17.30;87.40;;;;;;5033850;28;20040;-70
2023/05/23 02:36:35;;;;;;;11.30;9.77;;;17.20;87.50;;;;;;5065756;28;20040;-67
2023/05/23 02:39:03;;;;;;;11.93;9.90;;;17.30;87.20;;;;;;5045191;28;20131;-67
2023/05/23 02:41:30;;;;;;;10.55;9.32;;;17.40;87.00;;;;;;5059436;28;20052;-77
2023/05/23 02:43:58;;;;;;;11.02;9.30;;;17.40;86.80;;;;;;5046648;28;20041;-78
2023/05/23 02:46:25;;;;;;;12.07;10.35;;;17.30;86.80;;;;;;5047680;28;20075;-76
2023/05/23 02:48:52;;;;;;;12.35;9.82;;;17.30;86.70;;;;;;5024190;28;20049;-75
2023/05/23 02:51:19;;;;;;;11.63;9.88;;;17.30;86.70;;;;;;5044098;28;20449;-78
2023/05/23 02:53:47;;;;;;;11.85;9.77;;;17.30;86.90;;;;;;5039282;28;20072;-75
2023/05/23 02:56:14;;;;;;;11.65;9.35;;;17.20;87.00;;;;;;5038076;28;20050;-76
2023/05/23 02:58:41;;;;;;;12.02;9.82;;;17.30;86.90;;;;;;5041474;28;20080;-77
2023/05/23 03:01:08;;;;;;;11.30;9.32;;;17.20;86.80;;;;;;5036416;28;20123;-64
2023/05/23 03:03:35;;;;;;;10.95;9.07;;;17.20;86.80;;;;;;5046519;28;20502;-65
2023/05/23 03:06:03;;;;;;;12.50;10.05;;;17.20;86.90;;;;;;5045227;28;20048;-65
2023/05/23 03:08:30;;;;;;;13.93;9.50;;;17.20;86.80;;;;;;5038838;28;20036;-66
2023/05/23 03:10:59;;;;;;;11.23;9.55;;;17.20;86.80;;;;;;5065821;28;20882;-66
2023/05/23 03:13:26;;;;;;;11.15;9.35;;;17.20;86.90;;;;;;5046381;28;20087;-67
2023/05/23 03:15:53;;;;;;;11.40;9.75;;;17.20;86.90;;;;;;5067068;28;20063;-65
2023/05/23 03:18:20;;;;;;;12.98;10.48;;;17.10;86.90;;;;;;5060573;28;20049;-65
2023/05/23 03:20:47;;;;;;;12.65;9.50;;;17.10;87.00;;;;;;5056452;28;20046;-67
2023/05/23 03:23:14;;;;;;;10.93;9.35;;;17.10;87.10;;;;;;5062236;28;20081;-67
2023/05/23 03:25:42;;;;;;;10.55;8.68;;;17.10;87.10;;;;;;5045755;28;20045;-66
2023/05/23 03:28:11;;;;;;;10.63;8.95;;;17.10;87.10;;;;;;5062558;28;20488;-65
2023/05/23 03:30:37;;;;;;;12.40;9.85;;;17.10;87.00;;;;;;5062681;28;20447;-67
2023/05/23 03:33:05;;;;;;;12.65;9.77;;;17.10;86.80;;;;;;5061676;28;20044;-67
2023/05/23 03:35:32;;;;;;;10.90;9.20;;;17.10;86.90;;;;;;5062001;28;20072;-62
2023/05/23 03:37:59;;;;;;;11.60;9.15;;;17.10;86.90;;;;;;5064099;28;20044;-63
2023/05/23 03:40:26;;;;;;;12.25;10.27;;;17.00;87.00;;;;;;5042430;28;20510;-75
2023/05/23 03:43:02;;;;;;;12.85;10.50;;;17.00;87.00;;;;;;5064441;28;20047;-75
2023/05/23 03:45:31;;;;;;;11.20;9.52;;;17.00;86.90;;;;;;5032110;28;20051;-67
2023/05/23 03:47:58;;;;;;;11.40;9.63;;;17.00;87.10;;;;;;5045910;28;20053;-68
2023/05/23 03:50:25;;;;;;;13.00;10.98;;;16.90;87.20;;;;;;5041707;28;20072;-69
2023/05/23 03:52:52;;;;;;;12.23;9.88;;;17.00;87.20;;;;;;5067174;28;20059;-70
2023/05/23 03:55:22;;;;;;;12.85;11.25;;;16.90;87.20;;;;;;5049545;28;20147;-65
2023/05/23 03:57:51;;;;;;;16.48;10.68;;;16.90;87.30;;;;;;5069515;28;20056;-65
2023/05/23 04:00:19;;;;;;;11.18;9.98;;;16.90;87.40;;;;;;5058267;28;20052;-67
2023/05/23 04:02:51;;;;;;;;;;;16.90;87.40;;;;;;5043008;28;20123;-67
2023/05/23 04:05:21;;;;;;;14.48;10.00;;;16.80;87.40;;;;;;5043930;28;19924;-74
2023/05/23 04:07:50;;;;;;;12.55;11.25;;;16.90;87.30;;;;;;5048919;28;20052;-75
2023/05/23 04:10:22;;;;;;;13.27;11.23;;;16.90;87.20;;;;;;5038549;28;20071;-73
2023/05/23 04:12:48;;;;;;;13.90;10.90;;;16.90;87.30;;;;;;5058882;28;20044;-67
2023/05/23 04:15:20;;;;;;;12.45;10.32;;;17.00;87.30;;;;;;5049346;28;20650;-66
2023/05/23 04:17:59;;;;;;;12.95;11.13;;;16.90;87.30;;;;;;5042295;28;20048;-66
2023/05/23 04:20:27;;;;;;;13.98;11.60;;;17.00;87.20;;;;;;5041477;28;20057;-67
2023/05/23 04:22:55;;;;;;;12.90;11.52;;;17.00;87.10;;;;;;5049111;28;20569;-66
2023/05/23 04:25:23;;;;;;;14.98;12.73;;;17.00;86.90;;;;;;5049055;28;20087;-65
2023/05/23 04:28:04;;;;;;;12.93;10.70;;;17.10;86.90;;;;;;5050806;28;20151;-65
2023/05/23 04:30:31;;;;;;;13.50;11.38;;;17.10;87.00;;;;;;5049748;28;20094;-78
2023/05/23 04:32:59;;;;;;;15.43;11.50;;;17.10;86.90;;;;;;5036873;28;20155;-75
2023/05/23 04:35:28;;;;;;;14.60;11.05;;;17.10;86.70;;;;;;5039493;28;20054;-66
2023/05/23 04:37:56;;;;;;;14.18;11.10;;;17.10;86.50;;;;;;5043258;28;20407;-66
2023/05/23 04:40:24;;;;;;;13.02;10.55;;;17.10;86.50;;;;;;5061355;28;20045;-67
2023/05/23 04:43:15;;;;;;;14.23;10.70;;;17.10;86.20;;;;;;5042038;28;20048;-65
2023/05/23 04:45:50;;;;;;;13.13;10.93;;;17.20;86.00;;;;;;5041770;28;20480;-68
2023/05/23 04:48:37;;;;;;;15.02;12.05;;;17.20;86.30;;;;;;5062768;28;20206;-68
2023/05/23 04:51:07;;;;;;;13.98;11.57;;;17.10;86.20;;;;;;5035547;28;20055;-65
2023/05/23 04:53:38;;;;;;;12.60;10.57;;;17.20;85.60;;;;;;5058547;28;20083;-65
2023/05/23 04:56:07;;;;;;;14.18;10.98;;;17.20;85.50;;;;;;5044368;28;20094;-65
2023/05/23 04:58:39;;;;;;;16.90;11.43;;;17.20;85.60;;;;;;5042000;28;21718;-66
2023/05/23 05:01:08;;;;;;;12.18;10.60;;;17.20;85.80;;;;;;5045658;28;20041;-62
2023/05/23 05:03:36;;;;;;;14.88;10.43;;;17.20;85.70;;;;;;5042677;28;20095;-62
2023/05/23 05:06:04;;;;;;;12.55;10.02;;;17.10;85.40;;;;;;5041741;28;20051;-65
2023/05/23 05:08:32;;;;;;;12.30;10.05;;;17.20;85.40;;;;;;5037199;28;20148;-65
2023/05/23 05:10:59;;;;;;;12.73;10.13;;;17.20;85.10;;;;;;5069697;28;20251;-75
2023/05/23 05:13:26;;;;;;;12.57;9.73;;;17.20;85.30;;;;;;5045718;28;20072;-75
2023/05/23 05:15:55;;;;;;;13.07;10.35;;;17.20;85.50;;;;;;5044976;28;20048;-64
2023/05/23 05:18:26;;;;;;;12.05;9.93;;;17.10;85.30;;;;;;5048506;28;20053;-62
2023/05/23 05:20:55;;;;;;;15.43;11.00;;;17.10;85.10;;;;;;5052120;28;20504;-65
2023/05/23 05:23:27;;;;;;;11.80;9.63;;;17.10;85.00;;;;;;5051165;28;20483;-64
2023/05/23 05:25:55;;;;;;;13.38;9.52;;;17.10;84.70;;;;;;5038930;28;20506;-66
2023/05/23 05:28:22;;;;;;;12.15;10.05;;;17.20;84.70;;;;;;5049236;28;20056;-68
2023/05/23 05:30:52;;;;;;;11.93;9.77;;;17.20;84.90;;;;;;5038795;28;20055;-67
2023/05/23 05:33:22;;;;;;;14.23;10.15;;;17.20;84.70;;;;;;5048301;28;20492;-68
2023/05/23 05:35:57;;;;;;;14.48;10.60;;;17.10;84.90;;;;;;5041780;28;20419;-69
2023/05/23 05:38:25;;;;;;;10.85;9.10;;;17.10;85.10;;;;;;5067171;28;20127;-70
2023/05/23 05:40:52;;;;;;;12.68;9.80;;;17.10;85.30;;;;;;5046129;28;20052;-69
2023/05/23 05:43:21;;;;;;;14.07;9.65;;;17.10;85.20;;;;;;5047059;28;20457;-68
2023/05/23 05:45:48;;;;;;;11.60;8.77;;;17.20;85.30;;;;;;5039939;28;20131;-70
2023/05/23 05:48:15;;;;;;;13.00;10.30;;;17.20;85.00;;;;;;5050412;28;20133;-70
2023/05/23 05:50:44;;;;;;;12.98;9.68;;;17.20;85.30;;;;;;5040875;28;20080;-77
2023/05/23 05:53:11;;;;;;;12.50;8.63;;;17.20;85.20;;;;;;5049258;28;20056;-76
2023/05/23 05:55:40;;;;;;;13.88;9.02;;;17.20;84.90;;;;;;5049364;28;20067;-65
2023/05/23 05:58:07;;;;;;;11.48;9.02;;;17.30;84.70;;;;;;5063019;28;20055;-64
2023/05/23 06:00:48;;;;;;;12.05;9.35;;;17.20;84.50;;;;;;5045919;28;20045;-66
2023/05/23 06:03:15;;;;;;;11.75;9.60;;;17.20;84.60;;;;;;5042254;28;20044;-67
2023/05/23 06:05:49;;;;;;;15.35;10.60;;;17.20;84.90;;;;;;5047079;28;20131;-65
2023/05/23 06:08:16;;;;;;;13.65;10.90;;;17.20;84.70;;;;;;5057727;28;20059;-64
2023/05/23 06:10:45;;;;;;;14.77;10.52;;;17.20;84.60;;;;;;5048889;28;20056;-66
2023/05/23 06:13:12;;;;;;;13.43;10.18;;;17.20;84.50;;;;;;5043378;28;20052;-66
2023/05/23 06:15:41;;;;;;;15.43;9.80;;;17.20;84.60;;;;;;5044208;28;20052;-65
2023/05/23 06:18:08;;;;;;;14.32;10.02;;;17.10;84.30;;;;;;5066555;28;20053;-64
2023/05/23 06:20:36;;;;;;;12.73;9.15;;;17.20;83.60;;;;;;5069749;28;20128;-75
2023/05/23 06:23:07;;;;;;;11.73;8.98;;;17.20;82.80;;;;;;5044212;28;20134;-75
2023/05/23 06:25:34;;;;;;;10.38;8.38;;;17.20;82.40;;;;;;5039783;28;20048;-66
2023/05/23 06:28:02;;;;;;;11.02;8.38;;;17.20;82.60;;;;;;5062980;28;20041;-66
2023/05/23 06:30:30;;;;;;;9.70;7.60;;;17.20;82.50;;;;;;5044076;28;20127;-74
2023/05/23 06:32:57;;;;;;;9.23;7.60;;;17.20;82.40;;;;;;5046687;28;20049;-74
2023/05/23 06:35:25;;;;;;;8.45;6.28;;;17.20;82.50;;;;;;5067444;28;20141;-62
2023/05/23 06:37:53;;;;;;;9.63;8.30;;;17.20;82.60;;;;;;5068082;28;20113;-62
2023/05/23 06:40:20;;;;;;;11.90;7.60;;;17.30;82.60;;;;;;5060835;28;20060;-67
2023/05/23 06:42:47;;;;;;;10.05;6.90;;;17.30;82.50;;;;;;5044380;28;20110;-62
2023/05/23 06:45:25;;;;;;;8.85;6.50;;;17.30;82.00;;;;;;5043474;28;20037;-66
2023/05/23 06:47:51;;;;;;;9.02;6.78;;;17.30;82.20;;;;;;5066486;28;20036;-64
2023/05/23 06:50:19;;;;;;;8.38;6.53;;;17.30;82.00;;;;;;5050874;28;20495;-66
2023/05/23 06:52:48;;;;;;;9.20;6.07;;;17.30;81.70;;;;;;5048091;28;20095;-67
2023/05/23 06:55:18;;;;;;;9.77;6.25;;;17.30;81.30;;;;;;5044941;28;20592;-67
2023/05/23 06:57:46;;;;;;;7.82;6.50;;;17.30;81.20;;;;;;5036809;28;20056;-64
2023/05/23 07:00:14;;;;;;;8.40;6.78;;;17.30;81.00;;;;;;5047146;28;20127;-66
2023/05/23 07:02:55;;;;;;;9.05;6.53;;;17.30;81.20;;;;;;5063062;28;20052;-66
2023/05/23 07:05:23;;;;;;;8.33;6.43;;;17.30;81.60;;;;;;5061361;28;20621;-70
2023/05/23 07:07:51;;;;;;;7.28;5.63;;;17.30;81.20;;;;;;5058942;28;20973;-70
2023/05/23 07:10:18;;;;;;;7.45;5.85;;;17.30;81.40;;;;;;5043562;28;20048;-69
2023/05/23 07:12:47;;;;;;;8.43;5.50;;;17.30;81.20;;;;;;5046226;28;20041;-69
2023/05/23 07:15:16;;;;;;;8.15;5.53;;;17.40;80.70;;;;;;5041838;28;20052;-69
2023/05/23 07:17:56;;;;;;;8.68;5.30;;;17.30;80.80;;;;;;5052417;28;20047;-69
2023/05/23 07:20:23;;;;;;;7.97;5.53;;;17.40;80.80;;;;;;5046231;28;20404;-77
2023/05/23 07:22:53;;;;;;;7.35;4.80;;;17.50;81.00;;;;;;5037896;28;20063;-76
2023/05/23 07:25:22;;;;;;;6.88;4.80;;;17.60;81.10;;;;;;5056211;28;20053;-75
2023/05/23 07:27:49;;;;;;;6.63;4.03;;;17.70;80.90;;;;;;5045368;28;20125;-77
2023/05/23 07:30:16;;;;;;;6.60;4.15;;;17.80;80.40;;;;;;5049437;28;20577;-76
2023/05/23 07:32:43;;;;;;;5.13;3.63;;;17.90;79.60;;;;;;5064053;28;20041;-76
2023/05/23 07:35:16;;;;;;;5.00;3.38;;;18.10;79.20;;;;;;5042882;28;20048;-77
2023/05/23 07:37:43;;;;;;;5.13;3.75;;;18.20;79.00;;;;;;5065444;28;20500;-77
2023/05/23 07:40:12;;;;;;;5.30;3.38;;;18.30;78.70;;;;;;5053859;28;20044;-77
2023/05/23 07:42:39;;;;;;;6.70;3.60;;;18.40;77.80;;;;;;5045010;28;20395;-67
2023/05/23 07:45:07;;;;;;;5.43;3.22;;;18.40;77.70;;;;;;5060394;28;20056;-66
2023/05/23 07:47:36;;;;;;;6.03;3.17;;;18.40;77.90;;;;;;5046507;28;20049;-66
2023/05/23 07:50:03;;;;;;;6.13;4.10;;;18.30;78.10;;;;;;5060568;28;20548;-65
2023/05/23 07:52:32;;;;;;;6.38;3.35;;;18.40;77.80;;;;;;5041119;28;20492;-66
2023/05/23 07:55:00;;;;;;;6.03;3.40;;;18.20;77.60;;;;;;5045392;28;20403;-67
2023/05/23 07:57:28;;;;;;;5.45;3.08;;;18.30;77.50;;;;;;5053521;28;20059;-64
2023/05/23 07:59:56;;;;;;;4.60;2.97;;;18.30;78.00;;;;;;5064325;28;20107;-65
2023/05/23 08:02:24;;;;;;;5.43;3.13;;;18.40;77.90;;;;;;5037067;28;20945;-65
2023/05/23 08:04:52;;;;;;;5.93;3.10;;;18.40;76.70;;;;;;5034797;28;20119;-65
2023/05/23 08:07:20;;;;;;;8.18;2.90;;;18.40;76.80;;;;;;5060798;28;20049;-66
2023/05/23 08:09:53;;;;;;;5.25;2.95;;;18.40;76.40;;;;;;5040957;28;20419;-65
2023/05/23 08:12:21;;;;;;;5.15;2.92;;;18.40;76.80;;;;;;5059354;28;20056;-69
2023/05/23 08:14:51;;;;;;;5.35;2.97;;;18.50;76.50;;;;;;5045536;28;20043;-68
2023/05/23 08:17:30;;;;;;;5.45;2.83;;;18.50;75.80;;;;;;5046526;28;20053;-69
2023/05/23 08:19:59;;;;;;;4.28;2.60;;;18.50;75.70;;;;;;5065515;28;20558;-68
2023/05/23 08:22:26;;;;;;;5.22;3.08;;;18.50;75.60;;;;;;5045698;28;20057;-70
2023/05/23 08:24:55;;;;;;;5.13;2.92;;;18.50;75.10;;;;;;5047508;28;20126;-69
2023/05/23 08:27:22;;;;;;;5.18;2.80;;;18.40;75.00;;;;;;5063102;28;20045;-70
2023/05/23 08:29:55;;;;;;;3.90;2.42;;;18.40;75.50;;;;;;5048038;28;20045;-68
2023/05/23 08:32:23;;;;;;;4.28;2.80;;;18.40;75.80;;;;;;5035005;28;20057;-69
2023/05/23 08:34:49;;;;;;;4.72;2.65;;;18.30;76.20;;;;;;5037940;28;20041;-70
2023/05/23 08:37:17;;;;;;;3.92;2.50;;;18.30;76.20;;;;;;5059860;28;20131;-71
2023/05/23 08:39:44;;;;;;;3.90;2.67;;;18.30;76.10;;;;;;5052067;28;20044;-69
2023/05/23 08:42:31;;;;;;;4.25;2.75;;;18.20;76.00;;;;;;5066383;28;20043;-69
2023/05/23 08:44:59;;;;;;;6.07;3.25;;;18.20;76.40;;;;;;5046657;28;20048;-68
2023/05/23 08:47:28;;;;;;;6.78;3.83;;;18.20;76.50;;;;;;5049195;28;20048;-69
2023/05/23 08:50:01;;;;;;;5.00;3.20;;;18.20;76.30;;;;;;5053421;28;20120;-69
2023/05/23 08:52:32;;;;;;;5.67;3.57;;;18.20;76.30;;;;;;5043871;28;20083;-70
2023/05/23 08:55:01;;;;;;;7.75;3.58;;;18.20;76.50;;;;;;5050962;28;20048;-69
2023/05/23 08:57:31;;;;;;;5.65;3.40;;;18.20;76.40;;;;;;5045043;28;20055;-78
2023/05/23 09:00:13;;;;;;;5.53;3.22;;;18.30;76.50;;;;;;5051379;28;20694;-77
2023/05/23 09:02:42;;;;;;;6.03;3.75;;;18.40;76.30;;;;;;5042737;28;20147;-77
2023/05/23 09:05:21;;;;;;;5.68;3.45;;;18.50;75.80;;;;;;5045134;28;20055;-72
2023/05/23 09:07:49;;;;;;;6.30;3.95;;;18.60;75.50;;;;;;5048025;28;20052;-76
2023/05/23 09:10:19;;;;;;;6.03;4.00;;;18.60;75.20;;;;;;5050582;28;20062;-76
2023/05/23 09:12:48;;;;;;;6.67;4.60;;;18.70;75.00;;;;;;5044503;28;20537;-75
2023/05/23 09:15:15;;;;;;;8.60;5.82;;;18.70;75.00;;;;;;5046999;28;20059;-76
2023/05/23 09:17:44;;;;;;;10.75;6.75;;;18.80;75.10;;;;;;5050884;28;20408;-76
2023/05/23 09:20:13;;;;;;;7.75;5.82;;;18.90;74.80;;;;;;5043050;28;20056;-76
2023/05/23 09:22:47;;;;;;;6.55;4.68;;;18.90;74.60;;;;;;5045023;28;20056;-75
2023/05/23 09:25:16;;;;;;;7.10;4.07;;;18.90;74.10;;;;;;5064751;28;20094;-76
2023/05/23 09:27:45;;;;;;;5.93;2.83;;;18.80;74.20;;;;;;5047074;28;20067;-75
2023/05/23 09:30:14;;;;;;;5.20;3.13;;;18.80;74.10;;;;;;5049850;28;20480;-75
2023/05/23 09:32:43;;;;;;;6.83;3.30;;;18.90;74.30;;;;;;5031337;28;20078;-77
2023/05/23 09:35:12;;;;;;;6.55;4.32;;;18.90;74.20;;;;;;5066477;28;20470;-74
2023/05/23 09:37:42;;;;;;;8.13;5.07;;;18.90;74.20;;;;;;5043905;28;20048;-63
2023/05/23 09:40:11;;;;;;;5.88;4.03;;;18.90;74.10;;;;;;5045412;28;20057;-62
2023/05/23 09:42:43;;;;;;;6.20;4.35;;;18.90;74.00;;;;;;5045950;28;20048;-62
2023/05/23 09:45:11;;;;;;;7.10;4.63;;;18.90;74.60;;;;;;5066360;28;20480;-62
2023/05/23 09:47:39;;;;;;;7.30;4.30;;;18.90;74.20;;;;;;5045878;28;20040;-66
2023/05/23 09:50:08;;;;;;;8.15;5.35;;;18.90;74.00;;;;;;5065486;28;20123;-66
2023/05/23 09:52:37;;;;;;;7.82;5.22;;;18.90;74.10;;;;;;5063938;28;20048;-63
2023/05/23 09:55:05;;;;;;;7.75;5.60;;;18.90;74.40;;;;;;5068370;28;20052;-62
2023/05/23 09:57:35;;;;;;;7.13;4.65;;;18.90;74.30;;;;;;5058538;28;20193;-68
2023/05/23 10:00:07;;;;;;;7.63;4.90;;;18.80;74.40;;;;;;5061772;28;20063;-68
2023/05/23 10:03:00;;;;;;;7.20;4.80;;;18.70;74.50;;;;;;5063774;28;20071;-61
2023/05/23 10:05:34;;;;;;;6.93;4.45;;;18.70;74.80;;;;;;5067169;28;20044;-75
2023/05/23 10:08:07;;;;;;;8.13;4.80;;;18.60;74.90;;;;;;5063776;28;20041;-77
2023/05/23 10:10:37;;;;;;;7.93;4.60;;;18.70;75.10;;;;;;5063642;28;20052;-67
2023/05/23 10:13:06;;;;;;;6.85;4.72;;;18.70;75.00;;;;;;5061445;28;20565;-65
2023/05/23 10:15:39;;;;;;;5.47;3.83;;;18.70;74.80;;;;;;5057407;28;20049;-66
2023/05/23 10:18:17;;;;;;;5.55;3.10;;;18.70;74.70;;;;;;5064426;28;20048;-66
2023/05/23 10:20:49;;;;;;;5.60;3.17;;;18.60;75.10;;;;;;5066712;28;20443;-61
2023/05/23 10:23:16;;;;;;;4.32;2.45;;;18.50;75.20;;;;;;5057584;28;20044;-61
2023/05/23 10:25:44;;;;;;;5.10;2.50;;;18.40;75.70;;;;;;5061664;28;20036;-67
2023/05/23 10:28:13;;;;;;;5.00;2.95;;;18.30;76.10;;;;;;5062108;28;20048;-67
2023/05/23 10:30:40;;;;;;;4.15;2.58;;;18.40;76.00;;;;;;5065016;28;20404;-77
2023/05/23 10:33:08;;;;;;;4.88;2.85;;;18.40;75.50;;;;;;5065367;28;20040;-75
2023/05/23 10:35:47;;;;;;;5.05;2.17;;;18.30;75.60;;;;;;5059912;28;20048;-67
2023/05/23 10:38:26;;;;;;;5.63;2.38;;;18.30;75.80;;;;;;5061311;28;20039;-67
2023/05/23 10:41:01;;;;;;;4.03;2.40;;;18.50;75.60;;;;;;5064447;28;20047;-63
2023/05/23 10:43:34;;;;;;;4.03;2.45;;;18.50;75.60;;;;;;5058167;28;20500;-62
2023/05/23 10:46:01;;;;;;;3.67;2.50;;;18.60;75.50;;;;;;5061748;28;20041;-76
2023/05/23 10:48:34;;;;;;;4.13;2.50;;;18.70;75.20;;;;;;5061440;28;20052;-75
2023/05/23 10:51:07;;;;;;;4.10;2.42;;;18.80;75.00;;;;;;5061381;28;20044;-66
2023/05/23 10:53:36;;;;;;;3.83;2.22;;;19.00;74.60;;;;;;5067310;28;20064;-67
2023/05/23 10:56:06;;;;;;;4.28;2.40;;;19.00;74.10;;;;;;5063373;28;20098;-65
2023/05/23 10:58:35;;;;;;;2.72;1.73;;;19.10;73.70;;;;;;5060840;28;20050;-66
2023/05/23 11:01:05;;;;;;;3.75;2.28;;;19.10;73.30;;;;;;5059545;28;20487;-66
2023/05/23 11:03:34;;;;;;;3.78;1.90;;;19.10;73.30;;;;;;5065053;28;20091;-67
2023/05/23 11:06:02;;;;;;;3.03;1.90;;;19.10;73.00;;;;;;5057860;28;20469;-69
2023/05/23 11:08:38;;;;;;;3.75;2.00;;;19.10;72.90;;;;;;5061273;28;20056;-69
2023/05/23 11:11:05;;;;;;;2.20;1.52;;;19.10;73.20;;;;;;5055553;28;20396;-64
2023/05/23 11:13:55;;;;;;;2.47;1.63;;;19.00;71.40;;;;;;5059273;28;20044;-64
2023/05/23 11:16:26;;;;;;;3.28;1.70;;;19.00;71.00;;;;;;5060237;28;20056;-64
2023/05/23 11:18:57;;;;;;;2.83;1.50;;;19.00;71.40;;;;;;5059743;28;20052;-63
2023/05/23 11:21:25;;;;;;;4.13;1.35;;;19.00;71.30;;;;;;5065097;28;20048;-63
2023/05/23 11:23:55;;;;;;;3.22;1.58;;;19.00;71.20;;;;;;5053166;28;20037;-63
2023/05/23 11:26:32;;;;;;;2.55;1.50;;;18.90;71.10;;;;;;5064248;28;20048;-62
2023/05/23 11:29:02;;;;;;;2.33;1.20;;;18.80;71.90;;;;;;5051550;28;20045;-64
2023/05/23 11:31:29;;;;;;;2.80;1.38;;;18.80;71.00;;;;;;5054624;28;20451;-68
2023/05/23 11:33:56;;;;;;;2.88;1.50;;;18.80;71.90;;;;;;5065459;28;20126;-67
2023/05/23 11:36:23;;;;;;;3.40;1.60;;;18.70;71.40;;;;;;5066147;28;20057;-68
2023/05/23 11:38:51;;;;;;;3.45;1.40;;;18.70;71.60;;;;;;5058153;28;20040;-69
2023/05/23 11:41:20;;;;;;;2.67;1.20;;;18.60;71.30;;;;;;5057862;28;20053;-68
2023/05/23 11:43:51;;;;;;;2.20;1.30;;;18.60;71.30;;;;;;5059358;28;20071;-68
2023/05/23 11:46:18;;;;;;;4.35;1.48;;;18.60;71.90;;;;;;5061409;28;20052;-73
2023/05/23 11:48:45;;;;;;;2.75;1.35;;;18.70;71.80;;;;;;5056031;28;20103;-73
2023/05/23 11:51:13;;;;;;;2.63;1.67;;;18.60;71.50;;;;;;5062187;28;20083;-68
2023/05/23 11:53:40;;;;;;;2.65;1.45;;;18.60;71.90;;;;;;5056316;28;20048;-68
2023/05/23 11:56:22;;;;;;;2.50;1.42;;;18.60;71.90;;;;;;5060461;28;20052;-60
2023/05/23 11:58:57;;;;;;;2.65;1.20;;;18.70;71.80;;;;;;5059618;28;20055;-63
2023/05/23 12:01:30;;;;;;;3.15;1.67;;;18.60;71.60;;;;;;5062979;28;20052;-76
2023/05/23 12:03:57;;;;;;;1.90;1.17;;;18.70;71.90;;;;;;5057441;28;20057;-77
2023/05/23 12:06:25;;;;;;;2.25;1.30;;;18.70;71.40;;;;;;5062990;28;20045;-63
2023/05/23 12:08:52;;;;;;;1.95;1.17;;;18.60;71.80;;;;;;5063396;28;20045;-64
2023/05/23 12:11:19;;;;;;;2.13;1.10;;;18.70;71.70;;;;;;5054455;28;20045;-76
2023/05/23 12:14:11;;;;;;;2.90;1.27;;;18.70;71.80;;;;;;5062995;28;20044;-75
2023/05/23 12:16:38;;;;;;;3.60;1.52;;;18.70;72.00;;;;;;5055789;28;20036;-75
2023/05/23 12:19:05;;;;;;;1.92;1.10;;;18.80;71.60;;;;;;5063615;28;20504;-74
2023/05/23 12:21:44;;;;;;;2.22;1.35;;;18.80;71.00;;;;;;5063085;28;20040;-72
2023/05/23 12:24:17;;;;;;;2.00;1.20;;;18.80;71.50;;;;;;5065379;28;20135;-72
2023/05/23 12:26:51;;;;;;;2.90;1.00;;;18.80;70.40;;;;;;5063719;28;20084;-68
2023/05/23 12:29:21;;;;;;;1.75;0.90;;;18.80;69.60;;;;;;5061460;28;20063;-69
2023/05/23 12:31:51;;;;;;;1.50;1.00;;;18.70;69.50;;;;;;5066878;28;20127;-69
2023/05/23 12:34:21;;;;;;;3.60;1.10;;;18.80;69.90;;;;;;5069392;28;20040;-70
2023/05/23 12:36:49;;;;;;;2.67;1.10;;;18.80;70.10;;;;;;5063986;28;20094;-69
2023/05/23 12:39:16;;;;;;;2.10;1.15;;;18.90;70.30;;;;;;5063048;28;20070;-68
2023/05/23 12:41:44;;;;;;;1.63;1.00;;;19.00;69.80;;;;;;5060729;28;20072;-66
2023/05/23 12:44:15;;;;;;;1.67;1.00;;;19.10;69.70;;;;;;5063214;28;20052;-67
2023/05/23 12:46:43;;;;;;;3.25;0.90;;;19.10;69.60;;;;;;5044779;28;20045;-76
2023/05/23 12:49:11;;;;;;;1.60;1.10;;;19.10;69.50;;;;;;5065819;28;20052;-76
2023/05/23 12:51:38;;;;;;;1.75;1.13;;;19.10;69.70;;;;;;5065716;28;20045;-63